Kugluktuk Airport
CYCO : now visible

Airfield :











YOU CAN JOIN US ON...

 
LOGIN :

Register | Disclaimer

   EN    FR    IT 

 









Legend :    VFR   Marginal VFR   IFR   Intensive IFR   Very Intensive IFR
Visi :
Ceiling :
>= 8 km
>= 3000ft
5 to 8 km
1000 to 3000 ft
1500m to 5 km
500 to 1000 ft
800 to 1500m
200 to 500 ft
< 800m
< 200 ft
Symbols :   Thunderstorms  Fog  Heavy snow  Heavy precipitations  Wind > 20 kt






- Airport Elevation : 74 ft
- IATA code : YCO


CYCO - Kugluktuk

CURRENT METAR :
  • 261600Z 13004KT 040V130 12SM IC FEW016 FEW030 SCT080 M31/M34 A3018 RMK ST2SC1AS1 SC TR SLP227

EXPIRED METARs :
  • 261500Z 32003KT 12SM IC OVC016 M30/M33 A3020 RMK ST8 SLP231
  • 261413Z VRB02KT 12SM -SN OVC016 M28/M31 A3020 RMK SC8 FROIN SLP233

TAF TAF CYCO
Valid from the 26 at 13:00 until the 27 at 01:00 UTC


261238Z 2613/2701 22008KT P6SM FEW020
TEMPO 2613/2621 5SM -SN BKN020 RMK NXT FCST BY 261900Z



MET'MAP, your aeronautical weather chart ! - Copyright ORBIFLY December 2007 - Disclaimer

ORBIFLY MET'MAP TEAM :

Programming & Development : Alexandra Zaïnal
Concept & original design : Baudouin d'Aumeries
Assistance for programming : Marc-Olivier Méhu
Technical & hardware support : Manuel Goepfert

Contact : metmap@orbifly.com




SOURCES & CREDITS :

   NOAA       Earth
Advisory